CheckWX is a tool to help pilots better visualize weather data.  It is not intended as a substitute for an official pre-flight weather briefing.

15:34:46 UTC

KDRO TAF
Durango-La Plata County Airport
Durango, Colorado, USA
KDRO 281738Z 2818/2918 VRB04KT P6SM FEW090 FEW250 FM282000 34010G18KT P6SM SCT100 BKN200 FM290100 06011G18KT P6SM SCT100 BKN200 FM290800 VRB04KT P6SM FEW090 SCT250

May-28@
18:00 UTC

May-28 @ 18:00 UTC

May-28@
20:00 UTC

May-28 @ 20:00 UTC

TAF KDRO 281738Z 2818/2918 VRB04KT P6SM FEW090 FEW250

Expired

Wind
  • Variable at 4 KTS
Cloud Levels
  • Few at 9,000' AGL
  • Few at 25,000' AGL

May-28@
20:00 UTC

May-28 @ 20:00 UTC

May-29@
01:00 UTC

May-29 @ 01:00 UTC

FM282000 34010G18KT P6SM SCT100 BKN200

Expired

Wind
  • 340° at 10 KTS
  • {Gusting to 18 KTS
Cloud Levels
  • Scattered at 10,000' AGL
  • Broken at 20,000' AGL

May-29@
01:00 UTC

May-29 @ 01:00 UTC

May-29@
08:00 UTC

May-29 @ 08:00 UTC

FM290100 06011G18KT P6SM SCT100 BKN200

Expired

Wind
  • 060° at 11 KTS
  • {Gusting to 18 KTS
Cloud Levels
  • Scattered at 10,000' AGL
  • Broken at 20,000' AGL

May-29@
08:00 UTC

May-29 @ 08:00 UTC

May-29@
18:00 UTC

May-29 @ 18:00 UTC

FM290800 VRB04KT P6SM FEW090 SCT250

From

From Standard forecast or significant change

Wind
  • Variable at 4 KTS
Cloud Levels
  • Few at 9,000' AGL
  • Scattered at 25,000' AGL